Time;durP1;ratioP1;P1;durP2;ratioP2;P2;SDS_P1;SDS_P2;PMS_P1;PMS_P2;Temp;Humidity;BMP_temperature;BMP_pressure;BME280_temperature;BME280_humidity;BME280_pressure;Samples;Min_cycle;Max_cycle;Signal;HPM_P1;HPM_P2
2023/06/30 00:02:05;;;;;;;2.38;1.88;;;15.40;99.90;;;;;;5035768;28;20030;-75
2023/06/30 00:04:32;;;;;;;2.55;1.90;;;15.30;99.90;;;;;;5033042;28;20034;-77
2023/06/30 00:06:59;;;;;;;3.47;2.10;;;15.30;99.90;;;;;;5033376;28;20045;-77
2023/06/30 00:09:25;;;;;;;5.25;2.10;;;15.40;99.90;;;;;;5033780;28;20018;-75
2023/06/30 00:11:53;;;;;;;2.00;1.80;;;15.40;99.90;;;;;;5034372;28;20096;-75
2023/06/30 00:14:20;;;;;;;2.10;1.85;;;15.30;99.90;;;;;;5033763;28;20084;-76
2023/06/30 00:16:47;;;;;;;1.83;1.73;;;15.20;99.90;;;;;;5033806;28;20112;-77
2023/06/30 00:19:13;;;;;;;5.15;1.92;;;15.20;99.90;;;;;;5033069;28;20537;-75
2023/06/30 00:21:42;;;;;;;2.70;1.90;;;15.20;99.90;;;;;;5035474;28;20064;-76
2023/06/30 00:24:10;;;;;;;2.42;1.95;;;15.10;99.90;;;;;;5032993;28;20413;-77
2023/06/30 00:26:36;;;;;;;3.47;1.83;;;15.10;99.90;;;;;;5033772;28;20021;-76
2023/06/30 00:29:02;;;;;;;4.85;2.05;;;15.10;99.90;;;;;;5034194;28;20061;-76
2023/06/30 00:31:28;;;;;;;2.25;2.00;;;15.10;99.90;;;;;;5034375;28;20509;-76
2023/06/30 00:33:55;;;;;;;3.70;2.42;;;15.10;99.90;;;;;;5033837;28;20018;-75
2023/06/30 00:36:21;;;;;;;2.97;1.85;;;15.10;99.90;;;;;;5034816;28;20108;-76
2023/06/30 00:38:46;;;;;;;2.38;1.90;;;15.10;99.90;;;;;;5034267;28;20063;-75
2023/06/30 00:41:12;;;;;;;2.50;2.00;;;15.10;99.90;;;;;;5032863;28;20022;-75
2023/06/30 00:43:38;;;;;;;2.72;2.10;;;15.10;99.90;;;;;;5034455;28;20562;-75
2023/06/30 00:46:05;;;;;;;2.17;1.98;;;15.10;99.90;;;;;;5034907;28;20025;-75
2023/06/30 00:48:31;;;;;;;2.40;2.20;;;15.10;99.90;;;;;;5034548;28;20033;-75
2023/06/30 00:50:57;;;;;;;1.70;1.55;;;15.00;99.90;;;;;;5032765;28;20026;-75
2023/06/30 00:53:24;;;;;;;2.22;2.03;;;15.10;99.90;;;;;;5033178;28;20026;-75
2023/06/30 00:55:50;;;;;;;2.45;1.90;;;15.00;99.90;;;;;;5033733;28;20513;-75
2023/06/30 00:58:16;;;;;;;2.17;1.98;;;15.00;99.90;;;;;;5033023;28;20071;-76
2023/06/30 01:00:42;;;;;;;2.20;1.80;;;15.20;99.90;;;;;;5034551;28;20057;-76
2023/06/30 01:03:25;;;;;;;2.83;2.55;;;15.10;99.90;;;;;;5034036;28;20083;-76
2023/06/30 01:06:06;;;;;;;2.90;2.58;;;15.00;99.90;;;;;;5034940;28;20363;-76
2023/06/30 01:08:34;;;;;;;3.28;2.55;;;14.90;99.90;;;;;;5034629;28;20363;-77
2023/06/30 01:11:01;;;;;;;2.33;2.13;;;14.90;99.90;;;;;;5032422;28;20041;-75
2023/06/30 01:13:28;;;;;;;2.78;2.20;;;14.80;99.90;;;;;;5034370;28;20014;-77
2023/06/30 01:15:56;;;;;;;2.85;2.30;;;14.80;99.90;;;;;;5033637;28;20079;-76
2023/06/30 01:18:22;;;;;;;2.78;2.45;;;14.80;99.90;;;;;;5032573;28;20025;-76
2023/06/30 01:20:50;;;;;;;5.00;2.40;;;14.70;99.90;;;;;;5032525;28;20022;-75
2023/06/30 01:23:27;;;;;;;2.90;2.47;;;14.70;99.90;;;;;;5032749;28;20112;-75
2023/06/30 01:25:53;;;;;;;2.63;2.42;;;14.80;99.90;;;;;;5034180;28;20029;-76
2023/06/30 01:28:19;;;;;;;2.35;2.05;;;14.70;99.90;;;;;;5032680;28;20080;-76
2023/06/30 01:30:45;;;;;;;5.68;2.28;;;14.80;99.90;;;;;;5033724;28;20029;-75
2023/06/30 01:33:11;;;;;;;2.05;1.83;;;14.80;99.90;;;;;;5032811;28;20030;-76
2023/06/30 01:35:37;;;;;;;2.15;1.85;;;14.80;99.90;;;;;;5033844;28;20060;-75
2023/06/30 01:38:02;;;;;;;3.63;2.03;;;14.70;99.90;;;;;;5034307;28;20025;-75
2023/06/30 01:40:29;;;;;;;5.50;2.20;;;14.70;99.90;;;;;;5034286;28;20049;-75
2023/06/30 01:42:56;;;;;;;2.63;2.33;;;14.70;99.90;;;;;;5034060;28;20033;-75
2023/06/30 01:45:26;;;;;;;2.92;2.67;;;14.60;99.90;;;;;;5031926;28;20041;-75
2023/06/30 01:47:53;;;;;;;2.47;2.22;;;14.60;99.90;;;;;;5032488;28;20393;-76
2023/06/30 01:50:20;;;;;;;3.15;2.85;;;14.70;99.90;;;;;;5032224;28;20021;-75
2023/06/30 01:52:46;;;;;;;2.70;2.50;;;14.70;99.90;;;;;;5034102;28;20056;-77
2023/06/30 01:55:11;;;;;;;2.85;2.60;;;14.60;99.90;;;;;;5032705;28;20026;-77
2023/06/30 01:57:37;;;;;;;2.60;1.90;;;14.50;99.90;;;;;;5031931;28;20021;-76
2023/06/30 02:00:05;;;;;;;3.63;2.70;;;14.50;99.90;;;;;;5032995;28;20584;-75
2023/06/30 02:02:31;;;;;;;7.25;2.75;;;14.40;99.90;;;;;;5033018;28;20025;-75
2023/06/30 02:04:56;;;;;;;5.72;2.58;;;14.50;99.90;;;;;;5033608;28;20475;-75
2023/06/30 02:07:23;;;;;;;6.28;2.45;;;14.60;99.90;;;;;;5033867;28;20030;-75
2023/06/30 02:09:49;;;;;;;2.88;2.58;;;14.60;99.90;;;;;;5032719;28;20021;-75
2023/06/30 02:12:15;;;;;;;5.55;2.50;;;14.70;99.90;;;;;;5032399;28;20022;-75
2023/06/30 02:14:41;;;;;;;3.25;2.92;;;14.60;99.90;;;;;;5033454;28;20675;-75
2023/06/30 02:17:10;;;;;;;2.67;2.47;;;14.50;99.90;;;;;;5034234;28;20026;-75
2023/06/30 02:19:35;;;;;;;3.30;2.20;;;14.50;99.90;;;;;;5033922;28;20029;-75
2023/06/30 02:22:01;;;;;;;3.90;2.70;;;14.50;99.90;;;;;;5033233;28;20021;-75
2023/06/30 02:24:26;;;;;;;4.20;2.70;;;14.50;99.90;;;;;;5033107;28;20025;-75
2023/06/30 02:26:52;;;;;;;2.63;1.65;;;14.40;99.90;;;;;;5032471;28;20018;-75
2023/06/30 02:29:20;;;;;;;2.28;2.08;;;14.40;99.90;;;;;;5031972;28;20026;-77
2023/06/30 02:31:46;;;;;;;3.88;2.40;;;14.30;99.90;;;;;;5034115;28;20075;-75
2023/06/30 02:34:12;;;;;;;4.18;2.58;;;14.30;99.90;;;;;;5035325;28;20486;-75
2023/06/30 02:36:37;;;;;;;2.42;2.22;;;14.30;99.90;;;;;;5035566;28;20029;-75
2023/06/30 02:39:04;;;;;;;3.05;2.47;;;14.30;99.90;;;;;;5037020;28;20063;-75
2023/06/30 02:41:29;;;;;;;2.05;1.95;;;14.20;99.90;;;;;;5035879;28;20160;-76
2023/06/30 02:43:55;;;;;;;2.30;2.10;;;14.20;99.90;;;;;;5036062;28;20044;-75
2023/06/30 02:46:21;;;;;;;2.17;2.00;;;14.20;99.90;;;;;;5037709;28;20505;-75
2023/06/30 02:48:47;;;;;;;6.20;2.08;;;14.20;99.90;;;;;;5035819;28;20021;-77
2023/06/30 02:51:12;;;;;;;2.08;1.90;;;14.20;99.90;;;;;;5035787;28;20020;-76
2023/06/30 02:53:38;;;;;;;3.22;2.30;;;14.20;99.90;;;;;;5035739;28;20025;-75
2023/06/30 02:56:04;;;;;;;2.53;2.03;;;14.20;99.90;;;;;;5035159;28;20367;-75
2023/06/30 02:58:30;;;;;;;3.05;2.60;;;14.20;99.90;;;;;;5036938;28;20037;-76
2023/06/30 03:00:56;;;;;;;4.38;2.20;;;14.20;99.90;;;;;;5035011;28;20032;-78
2023/06/30 03:03:22;;;;;;;2.42;2.10;;;14.10;99.90;;;;;;5035410;28;20049;-75
2023/06/30 03:05:48;;;;;;;4.45;2.28;;;14.00;99.90;;;;;;5036814;28;20592;-75
2023/06/30 03:08:13;;;;;;;2.30;2.10;;;13.90;99.90;;;;;;5035311;28;20116;-75
2023/06/30 03:10:39;;;;;;;3.10;2.83;;;13.90;99.90;;;;;;5035145;28;20394;-76
2023/06/30 03:13:05;;;;;;;3.30;2.78;;;13.80;99.90;;;;;;5036607;28;20105;-75
2023/06/30 03:15:30;;;;;;;3.58;2.60;;;13.90;99.90;;;;;;5035970;28;20025;-76
2023/06/30 03:17:56;;;;;;;4.18;2.70;;;13.90;99.90;;;;;;5034675;28;20036;-77
2023/06/30 03:20:23;;;;;;;6.53;2.25;;;14.00;99.90;;;;;;5034625;28;20064;-75
2023/06/30 03:22:49;;;;;;;2.55;2.30;;;14.00;99.90;;;;;;5035990;28;20032;-77
2023/06/30 03:25:14;;;;;;;3.33;2.65;;;14.00;99.90;;;;;;5035971;28;20108;-77
2023/06/30 03:27:40;;;;;;;2.70;2.40;;;14.00;99.90;;;;;;5035537;28;20022;-76
2023/06/30 03:30:06;;;;;;;2.97;2.35;;;14.00;99.90;;;;;;5034757;28;20021;-77
2023/06/30 03:32:32;;;;;;;5.05;2.70;;;14.10;99.90;;;;;;5034629;28;20021;-77
2023/06/30 03:35:00;;;;;;;3.40;2.63;;;14.10;99.90;;;;;;5034692;28;20021;-77
2023/06/30 03:37:26;;;;;;;2.83;1.95;;;14.10;99.90;;;;;;5035924;28;20025;-78
2023/06/30 03:39:51;;;;;;;3.88;2.80;;;14.20;99.90;;;;;;5034806;28;20080;-76
2023/06/30 03:42:17;;;;;;;11.13;2.55;;;14.20;99.90;;;;;;5034536;28;20029;-75
2023/06/30 03:44:43;;;;;;;4.60;2.78;;;14.30;99.90;;;;;;5034888;28;20089;-75
2023/06/30 03:47:08;;;;;;;2.35;2.10;;;14.40;99.90;;;;;;5034686;28;20022;-76
2023/06/30 03:49:34;;;;;;;2.65;2.30;;;14.40;99.90;;;;;;5034279;28;20022;-75
2023/06/30 03:52:00;;;;;;;2.75;2.35;;;14.40;99.90;;;;;;5034581;28;20021;-75
2023/06/30 03:54:25;;;;;;;2.95;2.40;;;14.50;99.90;;;;;;5035348;28;20465;-78
2023/06/30 03:56:51;;;;;;;2.97;2.75;;;14.50;99.90;;;;;;5036253;28;20029;-77
2023/06/30 03:59:17;;;;;;;3.50;3.15;;;14.60;99.90;;;;;;5034434;28;20528;-78
2023/06/30 04:01:42;;;;;;;2.75;2.55;;;14.60;99.90;;;;;;5033340;28;20029;-75
2023/06/30 04:04:08;;;;;;;4.05;3.15;;;14.60;99.90;;;;;;5035041;28;20092;-75
2023/06/30 04:06:36;;;;;;;5.55;2.83;;;14.50;99.90;;;;;;5034220;28;20033;-77
2023/06/30 04:09:02;;;;;;;4.15;3.28;;;14.50;99.90;;;;;;5033452;28;20416;-75
2023/06/30 04:11:27;;;;;;;4.43;3.63;;;14.60;99.90;;;;;;5033747;28;20037;-77
2023/06/30 04:13:53;;;;;;;3.40;3.10;;;14.70;99.90;;;;;;5035410;28;20072;-75
2023/06/30 04:16:18;;;;;;;4.20;3.78;;;14.70;99.90;;;;;;5034080;28;20732;-75
2023/06/30 04:18:44;;;;;;;3.80;3.03;;;14.80;99.90;;;;;;5034783;28;20040;-75
2023/06/30 04:21:10;;;;;;;4.28;3.55;;;14.80;99.90;;;;;;5033617;28;20033;-76
2023/06/30 04:23:36;;;;;;;6.47;2.78;;;14.90;99.90;;;;;;5033576;28;20375;-76
2023/06/30 04:26:04;;;;;;;3.63;3.03;;;15.00;99.90;;;;;;5035022;28;20030;-75
2023/06/30 04:28:30;;;;;;;3.47;2.90;;;15.10;99.90;;;;;;5034755;28;20086;-77
2023/06/30 04:30:58;;;;;;;4.38;3.22;;;15.20;99.90;;;;;;5034967;28;20028;-75
2023/06/30 04:33:24;;;;;;;3.45;2.80;;;15.30;99.90;;;;;;5034002;28;20056;-75
2023/06/30 04:35:50;;;;;;;7.60;3.72;;;15.30;99.90;;;;;;5035117;28;20033;-77
2023/06/30 04:38:15;;;;;;;3.35;3.05;;;15.50;99.90;;;;;;5034210;28;20033;-76
2023/06/30 04:40:41;;;;;;;4.63;2.90;;;15.60;99.90;;;;;;5034291;28;20032;-79
2023/06/30 04:43:12;;;;;;;7.07;3.05;;;15.80;99.90;;;;;;5034379;28;20036;-78
2023/06/30 04:45:39;;;;;;;5.80;3.58;;;16.80;99.90;;;;;;5036024;28;20553;-78
2023/06/30 04:48:05;;;;;;;4.00;3.38;;;17.70;99.90;;;;;;5037101;28;20028;-77
2023/06/30 04:50:30;;;;;;;3.50;3.20;;;18.30;99.90;;;;;;5039386;28;20071;-79
2023/06/30 04:52:56;;;;;;;7.13;2.92;;;18.80;99.90;;;;;;5038530;28;20025;-75
2023/06/30 04:55:22;;;;;;;3.33;2.58;;;18.80;99.90;;;;;;5036861;28;20041;-77
2023/06/30 04:57:47;;;;;;;5.72;2.47;;;18.80;99.90;;;;;;5037153;28;20082;-76
2023/06/30 05:00:13;;;;;;;2.70;2.50;;;19.10;99.90;;;;;;5035357;28;20482;-75
2023/06/30 05:02:39;;;;;;;3.35;2.90;;;19.30;99.90;;;;;;5033566;28;20486;-76
2023/06/30 05:05:06;;;;;;;2.30;2.13;;;19.60;99.90;;;;;;5033197;28;20026;-75
2023/06/30 05:07:32;;;;;;;5.68;2.70;;;19.50;99.90;;;;;;5032311;28;20395;-76
2023/06/30 05:09:58;;;;;;;3.63;2.30;;;19.30;99.90;;;;;;5033933;28;20040;-75
2023/06/30 05:12:23;;;;;;;4.63;2.40;;;19.70;99.90;;;;;;5032954;28;20030;-75
2023/06/30 05:14:49;;;;;;;2.85;2.53;;;19.60;99.90;;;;;;5033526;28;20029;-77
2023/06/30 05:17:15;;;;;;;2.60;2.40;;;19.70;99.90;;;;;;5033390;28;20029;-75
2023/06/30 05:19:41;;;;;;;5.43;2.38;;;19.60;99.90;;;;;;5032944;28;20187;-76
2023/06/30 05:22:07;;;;;;;2.72;2.47;;;19.60;99.90;;;;;;5033356;28;20022;-76
2023/06/30 05:24:33;;;;;;;2.42;1.98;;;20.00;99.90;;;;;;5032328;28;20109;-78
2023/06/30 05:26:59;;;;;;;3.65;1.92;;;19.80;98.60;;;;;;5032604;28;20068;-77
2023/06/30 05:29:28;;;;;;;2.35;2.15;;;20.00;98.60;;;;;;5032195;28;20026;-77
2023/06/30 05:31:53;;;;;;;2.65;2.20;;;20.50;97.00;;;;;;5033265;28;20109;-75
2023/06/30 05:34:19;;;;;;;3.83;1.70;;;20.50;97.00;;;;;;5032631;28;20049;-75
2023/06/30 05:36:45;;;;;;;2.30;1.73;;;20.40;96.30;;;;;;5033371;28;20466;-76
2023/06/30 05:39:11;;;;;;;1.85;1.75;;;20.30;95.70;;;;;;5032987;28;20040;-76
2023/06/30 05:41:37;;;;;;;2.63;2.05;;;20.20;96.80;;;;;;5032004;28;20021;-76
2023/06/30 05:44:03;;;;;;;3.42;2.38;;;20.30;98.00;;;;;;5033531;28;20497;-76
2023/06/30 05:46:28;;;;;;;5.88;2.60;;;20.10;99.10;;;;;;5032753;28;20530;-76
2023/06/30 05:48:54;;;;;;;2.33;2.13;;;20.30;99.60;;;;;;5031779;28;20030;-75
2023/06/30 05:51:20;;;;;;;1.98;1.77;;;20.50;99.80;;;;;;5033521;28;20026;-77
2023/06/30 05:53:46;;;;;;;2.30;2.10;;;20.50;99.30;;;;;;5033220;28;20493;-75
2023/06/30 05:56:12;;;;;;;1.95;1.75;;;20.60;98.80;;;;;;5032485;28;20021;-75
2023/06/30 05:58:40;;;;;;;2.35;2.05;;;20.60;98.70;;;;;;5032423;28;20022;-75
2023/06/30 06:01:06;;;;;;;2.25;1.75;;;20.60;98.70;;;;;;5031698;28;20025;-77
2023/06/30 06:03:31;;;;;;;2.05;1.70;;;20.90;98.70;;;;;;5033265;28;20037;-75
2023/06/30 06:05:57;;;;;;;3.35;2.60;;;20.90;98.50;;;;;;5034503;28;20030;-76
2023/06/30 06:08:23;;;;;;;2.58;2.38;;;21.00;98.30;;;;;;5038349;28;20017;-78
2023/06/30 06:10:49;;;;;;;2.03;1.88;;;21.10;98.50;;;;;;5038450;28;20079;-78
2023/06/30 06:13:32;;;;;;;2.90;2.33;;;21.30;97.80;;;;;;5037282;28;20022;-77
2023/06/30 06:15:57;;;;;;;2.35;2.15;;;21.50;97.50;;;;;;5037756;28;20026;-77
2023/06/30 06:18:23;;;;;;;4.60;2.20;;;21.60;97.90;;;;;;5037167;28;20092;-76
2023/06/30 06:20:49;;;;;;;3.83;2.13;;;21.70;97.10;;;;;;5035342;28;20445;-76
2023/06/30 06:23:14;;;;;;;1.90;1.80;;;21.80;98.20;;;;;;5036018;28;20041;-76
2023/06/30 06:25:40;;;;;;;2.67;2.28;;;21.90;98.00;;;;;;5035641;28;20021;-75
2023/06/30 06:28:05;;;;;;;4.05;1.90;;;21.90;99.30;;;;;;5034255;28;20557;-76
2023/06/30 06:30:31;;;;;;;4.72;2.08;;;21.70;99.30;;;;;;5034611;28;20029;-76
2023/06/30 06:32:56;;;;;;;2.53;1.92;;;21.80;99.90;;;;;;5037910;28;20017;-76
2023/06/30 06:35:22;;;;;;;2.90;2.35;;;22.00;99.90;;;;;;5037261;28;20100;-75
2023/06/30 06:37:48;;;;;;;2.65;2.33;;;22.00;99.30;;;;;;5037075;28;20030;-76
2023/06/30 06:40:14;;;;;;;2.28;1.95;;;22.00;99.40;;;;;;5036627;28;20470;-76
2023/06/30 06:42:39;;;;;;;1.90;1.77;;;22.10;98.90;;;;;;5037135;28;20025;-75
2023/06/30 06:45:05;;;;;;;2.40;2.20;;;22.10;98.70;;;;;;5036247;28;20367;-77
2023/06/30 06:48:08;;;;;;;1.85;1.75;;;22.40;98.20;;;;;;5036531;28;20048;-76
2023/06/30 06:50:34;;;;;;;2.30;1.85;;;22.70;97.40;;;;;;5035894;28;20044;-77
2023/06/30 06:53:00;;;;;;;3.53;2.10;;;22.80;96.50;;;;;;5036615;28;20478;-77
2023/06/30 06:55:25;;;;;;;5.00;1.80;;;22.70;96.50;;;;;;5035768;28;20083;-76
2023/06/30 06:57:51;;;;;;;2.70;1.55;;;22.90;95.70;;;;;;5035301;28;20022;-75
2023/06/30 07:00:17;;;;;;;2.58;2.03;;;23.10;95.50;;;;;;5035589;28;20509;-76
2023/06/30 07:02:43;;;;;;;1.95;1.65;;;23.20;94.70;;;;;;5036442;28;20117;-77
2023/06/30 07:05:09;;;;;;;2.25;1.95;;;23.50;94.70;;;;;;5035747;28;20096;-76
2023/06/30 07:07:35;;;;;;;2.78;1.48;;;23.70;93.30;;;;;;5039160;28;20017;-77
2023/06/30 07:10:00;;;;;;;2.47;1.63;;;23.70;92.90;;;;;;5045152;28;20032;-76
2023/06/30 07:12:26;;;;;;;1.58;1.48;;;23.70;92.70;;;;;;5045614;28;20067;-77
2023/06/30 07:14:52;;;;;;;1.63;1.52;;;23.80;92.70;;;;;;5043857;28;20385;-77
2023/06/30 07:17:17;;;;;;;3.00;2.00;;;23.90;91.80;;;;;;5043907;28;20025;-77
2023/06/30 07:19:43;;;;;;;1.90;1.60;;;24.00;91.50;;;;;;5043889;28;20029;-77
2023/06/30 07:22:08;;;;;;;4.35;1.95;;;24.10;91.20;;;;;;5043993;28;20025;-78
2023/06/30 07:24:34;;;;;;;1.98;1.67;;;24.20;90.70;;;;;;5045616;28;20051;-78
2023/06/30 07:27:00;;;;;;;2.42;1.55;;;24.10;90.10;;;;;;5044135;28;20029;-77
2023/06/30 07:29:25;;;;;;;2.22;1.33;;;24.10;90.00;;;;;;5044827;28;20045;-77
2023/06/30 07:31:51;;;;;;;1.75;1.65;;;24.10;89.40;;;;;;5045256;28;20022;-78
2023/06/30 07:34:19;;;;;;;1.80;1.70;;;24.20;88.70;;;;;;5044962;28;20273;-77
2023/06/30 07:36:47;;;;;;;2.03;1.80;;;24.30;89.40;;;;;;5045525;28;20030;-77
2023/06/30 07:39:13;;;;;;;1.88;1.30;;;24.40;90.20;;;;;;5044485;28;20026;-77
2023/06/30 07:41:39;;;;;;;2.50;1.52;;;24.60;89.70;;;;;;5038201;28;20029;-76
2023/06/30 07:44:04;;;;;;;2.63;1.90;;;24.70;88.00;;;;;;5036771;28;20097;-77
2023/06/30 07:46:31;;;;;;;3.58;2.35;;;24.70;86.70;;;;;;5037921;28;20022;-77
2023/06/30 07:48:56;;;;;;;2.10;1.88;;;24.80;87.10;;;;;;5038423;28;20025;-76
2023/06/30 07:51:22;;;;;;;1.88;1.77;;;24.90;86.70;;;;;;5038711;28;20034;-77
2023/06/30 07:53:48;;;;;;;1.55;1.45;;;25.10;83.50;;;;;;5037636;28;20018;-77
2023/06/30 07:56:14;;;;;;;1.98;1.50;;;25.10;83.90;;;;;;5039199;28;20030;-78
2023/06/30 07:58:39;;;;;;;1.27;1.10;;;25.10;82.30;;;;;;5040465;28;20044;-76
2023/06/30 08:01:05;;;;;;;1.65;1.40;;;25.00;83.60;;;;;;5038908;28;20490;-76
2023/06/30 08:03:30;;;;;;;2.05;1.60;;;25.20;85.00;;;;;;5041575;28;20057;-77
2023/06/30 08:05:57;;;;;;;3.65;1.80;;;25.20;85.00;;;;;;5042876;28;20052;-77
2023/06/30 08:08:23;;;;;;;5.80;1.67;;;25.20;85.90;;;;;;5042819;28;20120;-77
2023/06/30 08:10:49;;;;;;;4.07;1.48;;;25.30;84.20;;;;;;5040362;28;20123;-76
2023/06/30 08:13:15;;;;;;;3.00;1.60;;;25.30;82.40;;;;;;5039556;28;20043;-77
2023/06/30 08:15:41;;;;;;;2.25;1.90;;;25.50;84.10;;;;;;5041334;28;20025;-77
2023/06/30 08:18:07;;;;;;;3.40;2.20;;;25.70;81.20;;;;;;5041413;28;20128;-76
2023/06/30 08:20:33;;;;;;;2.58;1.48;;;25.70;81.30;;;;;;5043045;28;20021;-78
2023/06/30 08:22:59;;;;;;;1.33;1.20;;;25.80;81.20;;;;;;5042408;28;20033;-77
2023/06/30 08:25:25;;;;;;;3.97;2.03;;;25.90;80.70;;;;;;5043063;28;20025;-76
2023/06/30 08:27:51;;;;;;;1.88;1.50;;;25.80;82.00;;;;;;5040179;28;20018;-77
2023/06/30 08:30:17;;;;;;;2.58;1.70;;;25.90;82.00;;;;;;5042145;28;20082;-77
2023/06/30 08:32:44;;;;;;;1.60;1.50;;;26.20;80.60;;;;;;5042100;28;20041;-77
2023/06/30 08:35:09;;;;;;;2.88;1.42;;;26.40;79.00;;;;;;5039652;28;20486;-77
2023/06/30 08:37:35;;;;;;;1.42;1.33;;;26.60;78.60;;;;;;5040113;28;20081;-77
2023/06/30 08:40:01;;;;;;;1.67;1.40;;;26.70;79.20;;;;;;5041067;28;20025;-78
2023/06/30 08:42:30;;;;;;;1.50;1.10;;;26.70;75.40;;;;;;5040304;28;20030;-77
2023/06/30 08:44:57;;;;;;;1.88;1.58;;;26.70;75.80;;;;;;5041940;28;20049;-77
2023/06/30 08:47:27;;;;;;;4.63;1.67;;;26.70;79.10;;;;;;5043871;28;20086;-78
2023/06/30 08:49:54;;;;;;;5.30;1.63;;;26.60;77.70;;;;;;5043647;28;20021;-77
2023/06/30 08:52:21;;;;;;;2.55;1.55;;;26.60;77.10;;;;;;5040686;28;20436;-76
2023/06/30 08:54:47;;;;;;;3.97;1.55;;;26.60;76.30;;;;;;5038098;28;20025;-78
2023/06/30 08:57:15;;;;;;;1.55;1.45;;;26.50;77.30;;;;;;5039732;28;20044;-77
2023/06/30 08:59:42;;;;;;;3.15;1.60;;;26.60;78.40;;;;;;5034497;28;20402;-77
2023/06/30 09:02:09;;;;;;;1.33;1.23;;;26.40;75.90;;;;;;5034148;28;20025;-75
2023/06/30 09:04:36;;;;;;;1.63;1.40;;;26.50;75.70;;;;;;5035751;28;20033;-76
2023/06/30 09:07:02;;;;;;;2.38;1.42;;;26.50;75.70;;;;;;5037674;28;20034;-75
2023/06/30 09:09:35;;;;;;;1.60;1.33;;;26.60;75.90;;;;;;5034754;28;20861;-77
2023/06/30 09:12:00;;;;;;;5.18;1.50;;;26.70;76.40;;;;;;5034280;28;20466;-76
2023/06/30 09:14:33;;;;;;;4.07;1.42;;;26.80;75.40;;;;;;5039669;28;20061;-76
2023/06/30 09:17:02;;;;;;;3.35;0.95;;;27.00;73.70;;;;;;5040312;28;20067;-77
2023/06/30 09:19:28;;;;;;;1.55;1.20;;;27.10;74.00;;;;;;5036124;28;20025;-76
2023/06/30 09:21:56;;;;;;;1.33;1.20;;;27.10;74.80;;;;;;5040720;28;20037;-78
2023/06/30 09:24:22;;;;;;;2.70;1.35;;;27.20;75.00;;;;;;5036403;28;20031;-76
2023/06/30 09:26:49;;;;;;;1.13;0.98;;;27.30;72.20;;;;;;5035948;28;20018;-78
2023/06/30 09:29:18;;;;;;;1.65;1.15;;;27.20;72.70;;;;;;5042390;28;20017;-76
2023/06/30 09:31:44;;;;;;;1.48;1.27;;;27.30;71.70;;;;;;5041742;28;20529;-78
2023/06/30 09:34:13;;;;;;;2.70;1.15;;;27.30;72.80;;;;;;5040124;28;20017;-76
2023/06/30 09:36:57;;;;;;;1.52;1.00;;;27.30;71.80;;;;;;5040609;28;20032;-76
2023/06/30 09:39:23;;;;;;;1.95;1.10;;;27.50;73.30;;;;;;5040473;28;20422;-78
2023/06/30 09:41:51;;;;;;;2.35;1.42;;;27.40;71.40;;;;;;5036669;28;20028;-76
2023/06/30 09:44:20;;;;;;;2.17;1.60;;;27.50;71.40;;;;;;5039243;28;20465;-77
2023/06/30 09:46:50;;;;;;;1.30;1.20;;;27.30;71.80;;;;;;5035529;28;20026;-76
2023/06/30 09:49:26;;;;;;;1.13;1.00;;;27.40;71.40;;;;;;5038111;28;20022;-78
2023/06/30 09:51:56;;;;;;;2.83;1.48;;;27.30;70.20;;;;;;5042340;28;20022;-78
2023/06/30 09:54:22;;;;;;;1.30;1.20;;;27.40;71.60;;;;;;5040072;28;20018;-76
2023/06/30 09:56:59;;;;;;;1.20;1.00;;;27.30;70.70;;;;;;5039176;28;20077;-75
2023/06/30 09:59:25;;;;;;;3.58;1.40;;;27.40;68.80;;;;;;5042306;28;20051;-76
2023/06/30 10:01:57;;;;;;;1.17;1.08;;;27.50;68.60;;;;;;5038895;28;20493;-77
2023/06/30 10:04:25;;;;;;;1.30;1.00;;;27.50;67.50;;;;;;5039167;28;20026;-77
2023/06/30 10:06:52;;;;;;;1.25;1.15;;;27.50;68.10;;;;;;5039691;28;20059;-77
2023/06/30 10:09:20;;;;;;;1.58;1.48;;;27.40;66.30;;;;;;5039237;28;20077;-77
2023/06/30 10:11:53;;;;;;;3.58;1.08;;;27.40;66.90;;;;;;5037999;28;20031;-76
2023/06/30 10:14:28;;;;;;;3.10;1.13;;;27.30;65.10;;;;;;5036557;28;20022;-77
2023/06/30 10:16:56;;;;;;;1.95;1.55;;;27.40;63.90;;;;;;5036958;28;20029;-75
2023/06/30 10:19:23;;;;;;;2.92;1.13;;;27.50;65.90;;;;;;5036536;28;20025;-77
2023/06/30 10:21:49;;;;;;;2.70;1.00;;;27.60;66.80;;;;;;5036907;28;20032;-77
2023/06/30 10:24:20;;;;;;;2.72;1.00;;;27.60;64.80;;;;;;5036653;28;20026;-77
2023/06/30 10:26:47;;;;;;;4.07;1.27;;;27.70;65.50;;;;;;5036986;28;20033;-77
2023/06/30 10:29:13;;;;;;;1.98;1.25;;;27.80;65.00;;;;;;5036186;28;20021;-76
2023/06/30 10:31:42;;;;;;;1.08;0.93;;;27.90;65.00;;;;;;5037490;28;20026;-76
2023/06/30 10:34:08;;;;;;;1.20;1.02;;;27.90;66.70;;;;;;5036803;28;20109;-77
2023/06/30 10:36:34;;;;;;;2.25;0.90;;;27.90;67.30;;;;;;5037978;28;20056;-78
2023/06/30 10:39:00;;;;;;;1.70;1.08;;;27.80;68.80;;;;;;5038259;28;20425;-77
2023/06/30 10:41:25;;;;;;;2.28;0.90;;;27.80;67.00;;;;;;5037750;28;20030;-78
2023/06/30 10:44:07;;;;;;;1.77;1.23;;;27.80;68.80;;;;;;5038635;28;20109;-77
2023/06/30 10:47:00;;;;;;;2.30;1.50;;;27.70;67.60;;;;;;5038130;28;20486;-76
2023/06/30 10:49:37;;;;;;;2.92;1.48;;;27.90;69.40;;;;;;5033320;28;20040;-75
2023/06/30 10:52:07;;;;;;;1.35;1.25;;;28.20;69.70;;;;;;5032714;28;20033;-75
2023/06/30 10:54:44;;;;;;;1.08;0.95;;;28.30;70.30;;;;;;5033948;28;20026;-75
2023/06/30 10:57:12;;;;;;;1.90;1.17;;;28.20;67.30;;;;;;5033685;28;20029;-75
2023/06/30 10:59:45;;;;;;;1.52;1.25;;;28.20;69.80;;;;;;5034891;28;20105;-75
2023/06/30 11:02:17;;;;;;;1.17;1.08;;;28.30;69.00;;;;;;5034719;28;20022;-76
2023/06/30 11:04:46;;;;;;;1.40;1.30;;;28.50;67.90;;;;;;5033744;28;20588;-76
2023/06/30 11:07:28;;;;;;;1.83;1.10;;;28.60;69.30;;;;;;5033630;28;20498;-75
2023/06/30 11:09:53;;;;;;;3.00;1.25;;;28.50;68.80;;;;;;5033255;28;20394;-75
2023/06/30 11:12:27;;;;;;;3.05;1.20;;;28.50;67.90;;;;;;5035622;28;20097;-76
2023/06/30 11:15:00;;;;;;;1.35;1.25;;;28.50;67.90;;;;;;5033295;28;20430;-75
2023/06/30 11:17:47;;;;;;;2.22;1.30;;;28.60;66.90;;;;;;5034748;28;20439;-76
2023/06/30 11:20:14;;;;;;;2.10;1.15;;;28.60;67.20;;;;;;5033935;28;20029;-75
2023/06/30 11:22:40;;;;;;;1.13;1.02;;;28.60;63.90;;;;;;5033627;28;20044;-76
2023/06/30 11:25:11;;;;;;;2.35;1.40;;;28.80;63.20;;;;;;5035806;28;20025;-76
2023/06/30 11:27:40;;;;;;;1.52;1.15;;;28.90;63.40;;;;;;5035044;28;20053;-76
2023/06/30 11:30:07;;;;;;;1.48;1.38;;;29.20;64.50;;;;;;5035776;28;20105;-77
2023/06/30 11:32:38;;;;;;;0.90;0.90;;;29.30;61.80;;;;;;5034574;28;20108;-76
2023/06/30 11:35:09;;;;;;;1.00;1.00;;;29.40;63.70;;;;;;5033107;28;20087;-75
2023/06/30 11:37:36;;;;;;;1.75;1.30;;;29.40;63.60;;;;;;5032957;28;20033;-76
2023/06/30 11:40:03;;;;;;;2.85;1.38;;;29.50;60.80;;;;;;5034702;28;20029;-77
2023/06/30 11:42:28;;;;;;;1.48;1.30;;;29.40;63.20;;;;;;5034035;28;20501;-76
2023/06/30 11:44:54;;;;;;;1.70;1.30;;;29.30;65.10;;;;;;5034248;28;20029;-75
2023/06/30 11:47:21;;;;;;;1.48;1.05;;;29.40;63.30;;;;;;5033874;28;20028;-75
2023/06/30 11:49:47;;;;;;;1.10;1.10;;;29.50;62.10;;;;;;5034073;28;20025;-77
2023/06/30 11:52:14;;;;;;;1.58;1.20;;;29.30;63.40;;;;;;5035694;28;20410;-77
2023/06/30 11:54:40;;;;;;;1.60;1.10;;;29.40;64.20;;;;;;5033433;28;20030;-76
2023/06/30 11:57:07;;;;;;;1.38;1.10;;;29.50;62.70;;;;;;5033642;28;20026;-76
2023/06/30 11:59:33;;;;;;;2.03;0.90;;;29.40;61.80;;;;;;5033729;28;20029;-75
2023/06/30 12:02:02;;;;;;;0.95;0.95;;;29.40;62.30;;;;;;5033039;28;20028;-76
2023/06/30 12:04:33;;;;;;;1.17;1.10;;;29.40;60.10;;;;;;5031724;28;20021;-75
2023/06/30 12:07:00;;;;;;;1.55;1.15;;;29.40;62.50;;;;;;5033720;28;20100;-77
2023/06/30 12:09:25;;;;;;;1.90;1.02;;;29.40;66.30;;;;;;5032878;28;20646;-77
2023/06/30 12:11:51;;;;;;;4.97;1.15;;;29.40;65.50;;;;;;5034338;28;20101;-75
2023/06/30 12:14:22;;;;;;;1.52;1.10;;;29.30;64.80;;;;;;5033753;28;20049;-75
2023/06/30 12:16:48;;;;;;;1.75;1.48;;;29.50;67.00;;;;;;5032554;28;20113;-75
2023/06/30 12:19:15;;;;;;;2.92;1.23;;;29.70;62.80;;;;;;5037591;28;20048;-76
2023/06/30 12:22:00;;;;;;;3.42;1.10;;;29.50;65.00;;;;;;5037713;28;20420;-77
2023/06/30 12:24:33;;;;;;;1.30;1.20;;;29.50;65.70;;;;;;5033779;28;20479;-74
2023/06/30 12:27:03;;;;;;;1.33;1.23;;;29.30;63.30;;;;;;5036291;28;20445;-76
2023/06/30 12:29:30;;;;;;;1.60;1.30;;;29.30;64.60;;;;;;5034349;28;20028;-75
2023/06/30 12:31:56;;;;;;;4.35;1.48;;;29.40;64.70;;;;;;5032176;28;20068;-76
2023/06/30 12:34:32;;;;;;;0.98;0.88;;;29.50;64.60;;;;;;5033807;28;20033;-75
2023/06/30 12:36:58;;;;;;;1.83;1.02;;;29.70;63.50;;;;;;5034607;28;20021;-78
2023/06/30 12:39:24;;;;;;;0.90;0.90;;;29.60;61.50;;;;;;5033620;28;20029;-76
2023/06/30 12:41:50;;;;;;;2.85;0.95;;;29.50;62.60;;;;;;5036135;28;20036;-77
2023/06/30 12:44:15;;;;;;;1.45;1.35;;;29.40;62.30;;;;;;5035126;28;20021;-77
2023/06/30 12:46:41;;;;;;;3.08;1.20;;;29.40;62.90;;;;;;5032809;28;20501;-76
2023/06/30 12:49:07;;;;;;;2.10;1.17;;;29.50;62.30;;;;;;5031523;28;20429;-76